sensor_id;sensor_type;location;lat;lon;timestamp;P1;durP1;ratioP1;P2;durP2;ratioP2
12042;SDS011;6082;49.306;12.862;2022-07-04T00:01:01;1.60;;;1.40;;
12042;SDS011;6082;49.306;12.862;2022-07-04T00:03:26;1.63;;;1.50;;
12042;SDS011;6082;49.306;12.862;2022-07-04T00:05:52;2.13;;;1.57;;
12042;SDS011;6082;49.306;12.862;2022-07-04T00:08:18;1.77;;;1.57;;
12042;SDS011;6082;49.306;12.862;2022-07-04T00:10:43;1.60;;;1.50;;
12042;SDS011;6082;49.306;12.862;2022-07-04T00:13:09;1.40;;;1.30;;
12042;SDS011;6082;49.306;12.862;2022-07-04T00:15:35;3.70;;;1.47;;
12042;SDS011;6082;49.306;12.862;2022-07-04T00:18:01;1.30;;;1.20;;
12042;SDS011;6082;49.306;12.862;2022-07-04T00:20:26;1.60;;;1.50;;
12042;SDS011;6082;49.306;12.862;2022-07-04T00:22:52;1.67;;;1.53;;
12042;SDS011;6082;49.306;12.862;2022-07-04T00:25:18;2.57;;;1.40;;
12042;SDS011;6082;49.306;12.862;2022-07-04T00:27:44;1.90;;;1.70;;
12042;SDS011;6082;49.306;12.862;2022-07-04T00:30:09;2.07;;;1.70;;
12042;SDS011;6082;49.306;12.862;2022-07-04T00:32:35;1.50;;;1.40;;
12042;SDS011;6082;49.306;12.862;2022-07-04T00:35:01;1.50;;;1.40;;
12042;SDS011;6082;49.306;12.862;2022-07-04T00:37:27;1.77;;;1.47;;
12042;SDS011;6082;49.306;12.862;2022-07-04T00:39:53;1.70;;;1.60;;
12042;SDS011;6082;49.306;12.862;2022-07-04T00:42:20;1.53;;;1.40;;
12042;SDS011;6082;49.306;12.862;2022-07-04T00:44:46;2.50;;;1.50;;
12042;SDS011;6082;49.306;12.862;2022-07-04T00:47:12;1.40;;;1.30;;
12042;SDS011;6082;49.306;12.862;2022-07-04T00:49:37;1.40;;;1.20;;
12042;SDS011;6082;49.306;12.862;2022-07-04T00:52:05;1.60;;;1.50;;
12042;SDS011;6082;49.306;12.862;2022-07-04T00:54:31;1.77;;;1.67;;
12042;SDS011;6082;49.306;12.862;2022-07-04T00:56:57;1.37;;;1.27;;
12042;SDS011;6082;49.306;12.862;2022-07-04T00:59:25;1.67;;;1.57;;
12042;SDS011;6082;49.306;12.862;2022-07-04T01:01:52;1.93;;;1.70;;
12042;SDS011;6082;49.306;12.862;2022-07-04T01:04:21;2.40;;;2.10;;
12042;SDS011;6082;49.306;12.862;2022-07-04T01:06:47;1.87;;;1.67;;
12042;SDS011;6082;49.306;12.862;2022-07-04T01:09:14;1.63;;;1.53;;
12042;SDS011;6082;49.306;12.862;2022-07-04T01:11:40;1.93;;;1.40;;
12042;SDS011;6082;49.306;12.862;2022-07-04T01:14:06;1.80;;;1.47;;
12042;SDS011;6082;49.306;12.862;2022-07-04T01:16:32;2.03;;;1.83;;
12042;SDS011;6082;49.306;12.862;2022-07-04T01:18:59;1.90;;;1.50;;
12042;SDS011;6082;49.306;12.862;2022-07-04T01:21:25;2.67;;;1.50;;
12042;SDS011;6082;49.306;12.862;2022-07-04T01:23:51;1.57;;;1.47;;
12042;SDS011;6082;49.306;12.862;2022-07-04T01:26:17;1.70;;;1.60;;
12042;SDS011;6082;49.306;12.862;2022-07-04T01:28:43;1.53;;;1.40;;
12042;SDS011;6082;49.306;12.862;2022-07-04T01:31:09;1.60;;;1.50;;
12042;SDS011;6082;49.306;12.862;2022-07-04T01:33:35;1.33;;;1.23;;
12042;SDS011;6082;49.306;12.862;2022-07-04T01:36:04;1.97;;;1.73;;
12042;SDS011;6082;49.306;12.862;2022-07-04T01:38:29;1.87;;;1.77;;
12042;SDS011;6082;49.306;12.862;2022-07-04T01:40:55;2.20;;;1.60;;
12042;SDS011;6082;49.306;12.862;2022-07-04T01:43:21;1.50;;;1.33;;
12042;SDS011;6082;49.306;12.862;2022-07-04T01:45:47;1.50;;;1.40;;
12042;SDS011;6082;49.306;12.862;2022-07-04T01:48:12;1.47;;;1.37;;
12042;SDS011;6082;49.306;12.862;2022-07-04T01:50:39;2.13;;;1.70;;
12042;SDS011;6082;49.306;12.862;2022-07-04T01:53:05;1.50;;;1.40;;
12042;SDS011;6082;49.306;12.862;2022-07-04T01:55:31;2.00;;;1.70;;
12042;SDS011;6082;49.306;12.862;2022-07-04T01:57:58;2.03;;;1.70;;
12042;SDS011;6082;49.306;12.862;2022-07-04T02:00:25;2.20;;;1.63;;
12042;SDS011;6082;49.306;12.862;2022-07-04T02:03:09;1.73;;;1.63;;
12042;SDS011;6082;49.306;12.862;2022-07-04T02:05:35;2.07;;;1.87;;
12042;SDS011;6082;49.306;12.862;2022-07-04T02:08:02;1.83;;;1.73;;
12042;SDS011;6082;49.306;12.862;2022-07-04T02:10:32;1.73;;;1.63;;
12042;SDS011;6082;49.306;12.862;2022-07-04T02:12:59;2.00;;;1.80;;
12042;SDS011;6082;49.306;12.862;2022-07-04T02:15:38;1.60;;;1.50;;
12042;SDS011;6082;49.306;12.862;2022-07-04T02:18:07;1.70;;;1.60;;
12042;SDS011;6082;49.306;12.862;2022-07-04T02:20:35;2.33;;;1.63;;
12042;SDS011;6082;49.306;12.862;2022-07-04T02:23:02;2.17;;;1.43;;
12042;SDS011;6082;49.306;12.862;2022-07-04T02:25:29;2.00;;;1.80;;
12042;SDS011;6082;49.306;12.862;2022-07-04T02:27:55;2.50;;;2.10;;
12042;SDS011;6082;49.306;12.862;2022-07-04T02:30:22;2.03;;;1.87;;
12042;SDS011;6082;49.306;12.862;2022-07-04T02:32:48;2.33;;;2.00;;
12042;SDS011;6082;49.306;12.862;2022-07-04T02:35:14;1.73;;;1.60;;
12042;SDS011;6082;49.306;12.862;2022-07-04T02:37:40;1.70;;;1.60;;
12042;SDS011;6082;49.306;12.862;2022-07-04T02:40:06;1.80;;;1.70;;
12042;SDS011;6082;49.306;12.862;2022-07-04T02:42:33;2.77;;;1.50;;
12042;SDS011;6082;49.306;12.862;2022-07-04T02:45:00;2.00;;;1.80;;
12042;SDS011;6082;49.306;12.862;2022-07-04T02:47:26;2.03;;;1.40;;
12042;SDS011;6082;49.306;12.862;2022-07-04T02:49:53;1.50;;;1.40;;
12042;SDS011;6082;49.306;12.862;2022-07-04T02:52:19;1.60;;;1.50;;
12042;SDS011;6082;49.306;12.862;2022-07-04T02:54:45;1.60;;;1.50;;
12042;SDS011;6082;49.306;12.862;2022-07-04T02:57:11;1.40;;;1.30;;
12042;SDS011;6082;49.306;12.862;2022-07-04T02:59:37;1.83;;;1.73;;
12042;SDS011;6082;49.306;12.862;2022-07-04T03:02:03;1.63;;;1.53;;
12042;SDS011;6082;49.306;12.862;2022-07-04T03:04:29;1.53;;;1.43;;
12042;SDS011;6082;49.306;12.862;2022-07-04T03:06:55;1.77;;;1.43;;
12042;SDS011;6082;49.306;12.862;2022-07-04T03:09:21;1.70;;;1.60;;
12042;SDS011;6082;49.306;12.862;2022-07-04T03:11:46;1.60;;;1.50;;
12042;SDS011;6082;49.306;12.862;2022-07-04T03:14:12;1.70;;;1.60;;
12042;SDS011;6082;49.306;12.862;2022-07-04T03:16:38;1.90;;;1.60;;
12042;SDS011;6082;49.306;12.862;2022-07-04T03:19:03;1.60;;;1.50;;
12042;SDS011;6082;49.306;12.862;2022-07-04T03:21:29;1.70;;;1.60;;
12042;SDS011;6082;49.306;12.862;2022-07-04T03:23:55;1.60;;;1.50;;
12042;SDS011;6082;49.306;12.862;2022-07-04T03:26:27;1.47;;;1.37;;
12042;SDS011;6082;49.306;12.862;2022-07-04T03:28:58;2.27;;;1.40;;
12042;SDS011;6082;49.306;12.862;2022-07-04T03:31:25;1.50;;;1.40;;
12042;SDS011;6082;49.306;12.862;2022-07-04T03:33:51;3.17;;;1.90;;
12042;SDS011;6082;49.306;12.862;2022-07-04T03:36:17;1.43;;;1.33;;
12042;SDS011;6082;49.306;12.862;2022-07-04T03:38:43;2.23;;;1.87;;
12042;SDS011;6082;49.306;12.862;2022-07-04T03:41:10;1.87;;;1.70;;
12042;SDS011;6082;49.306;12.862;2022-07-04T03:43:36;1.77;;;1.67;;
12042;SDS011;6082;49.306;12.862;2022-07-04T03:46:02;1.40;;;1.30;;
12042;SDS011;6082;49.306;12.862;2022-07-04T03:48:28;2.07;;;1.77;;
12042;SDS011;6082;49.306;12.862;2022-07-04T03:50:54;1.77;;;1.67;;
12042;SDS011;6082;49.306;12.862;2022-07-04T03:53:20;1.70;;;1.60;;
12042;SDS011;6082;49.306;12.862;2022-07-04T03:55:46;1.80;;;1.50;;
12042;SDS011;6082;49.306;12.862;2022-07-04T03:58:12;1.90;;;1.80;;
12042;SDS011;6082;49.306;12.862;2022-07-04T04:00:38;3.10;;;1.87;;
12042;SDS011;6082;49.306;12.862;2022-07-04T04:03:04;2.43;;;2.00;;
12042;SDS011;6082;49.306;12.862;2022-07-04T04:05:52;1.80;;;1.70;;
12042;SDS011;6082;49.306;12.862;2022-07-04T04:08:18;3.47;;;2.03;;
12042;SDS011;6082;49.306;12.862;2022-07-04T04:10:44;2.37;;;1.83;;
12042;SDS011;6082;49.306;12.862;2022-07-04T04:13:10;2.10;;;1.90;;
12042;SDS011;6082;49.306;12.862;2022-07-04T04:15:36;2.10;;;1.90;;
12042;SDS011;6082;49.306;12.862;2022-07-04T04:18:01;2.70;;;1.90;;
12042;SDS011;6082;49.306;12.862;2022-07-04T04:20:27;1.67;;;1.47;;
12042;SDS011;6082;49.306;12.862;2022-07-04T04:22:53;2.17;;;1.97;;
12042;SDS011;6082;49.306;12.862;2022-07-04T04:25:18;2.03;;;1.87;;
12042;SDS011;6082;49.306;12.862;2022-07-04T04:27:44;3.60;;;1.90;;
12042;SDS011;6082;49.306;12.862;2022-07-04T04:30:10;2.70;;;2.20;;
12042;SDS011;6082;49.306;12.862;2022-07-04T04:32:36;1.97;;;1.77;;
12042;SDS011;6082;49.306;12.862;2022-07-04T04:35:02;3.27;;;2.37;;
12042;SDS011;6082;49.306;12.862;2022-07-04T04:37:28;2.80;;;2.10;;
12042;SDS011;6082;49.306;12.862;2022-07-04T04:39:54;2.13;;;1.60;;
12042;SDS011;6082;49.306;12.862;2022-07-04T04:42:20;2.10;;;1.90;;
12042;SDS011;6082;49.306;12.862;2022-07-04T04:44:46;2.43;;;1.90;;
12042;SDS011;6082;49.306;12.862;2022-07-04T04:47:11;2.40;;;2.20;;
12042;SDS011;6082;49.306;12.862;2022-07-04T04:49:37;2.23;;;2.03;;
12042;SDS011;6082;49.306;12.862;2022-07-04T04:52:03;2.17;;;1.97;;
12042;SDS011;6082;49.306;12.862;2022-07-04T04:54:30;3.10;;;2.10;;
12042;SDS011;6082;49.306;12.862;2022-07-04T04:56:56;2.23;;;1.77;;
12042;SDS011;6082;49.306;12.862;2022-07-04T04:59:22;1.97;;;1.50;;
12042;SDS011;6082;49.306;12.862;2022-07-04T05:01:48;3.00;;;1.90;;
12042;SDS011;6082;49.306;12.862;2022-07-04T05:04:13;1.90;;;1.67;;
12042;SDS011;6082;49.306;12.862;2022-07-04T05:06:40;2.17;;;1.90;;
12042;SDS011;6082;49.306;12.862;2022-07-04T05:09:05;2.43;;;1.50;;
12042;SDS011;6082;49.306;12.862;2022-07-04T05:11:31;2.17;;;1.97;;
12042;SDS011;6082;49.306;12.862;2022-07-04T05:13:57;2.50;;;2.10;;
12042;SDS011;6082;49.306;12.862;2022-07-04T05:16:23;2.53;;;2.10;;
12042;SDS011;6082;49.306;12.862;2022-07-04T05:18:48;2.27;;;1.87;;
12042;SDS011;6082;49.306;12.862;2022-07-04T05:21:14;2.37;;;1.90;;
12042;SDS011;6082;49.306;12.862;2022-07-04T05:23:40;3.07;;;1.83;;
12042;SDS011;6082;49.306;12.862;2022-07-04T05:26:06;2.20;;;2.00;;
12042;SDS011;6082;49.306;12.862;2022-07-04T05:28:31;2.23;;;1.70;;
12042;SDS011;6082;49.306;12.862;2022-07-04T05:30:57;1.70;;;1.60;;
12042;SDS011;6082;49.306;12.862;2022-07-04T05:33:23;2.77;;;1.77;;
12042;SDS011;6082;49.306;12.862;2022-07-04T05:35:49;2.40;;;1.87;;
12042;SDS011;6082;49.306;12.862;2022-07-04T05:38:14;2.73;;;2.00;;
12042;SDS011;6082;49.306;12.862;2022-07-04T05:40:40;2.93;;;1.70;;
12042;SDS011;6082;49.306;12.862;2022-07-04T05:43:06;2.00;;;1.90;;
12042;SDS011;6082;49.306;12.862;2022-07-04T05:45:31;1.70;;;1.60;;
12042;SDS011;6082;49.306;12.862;2022-07-04T05:47:57;2.10;;;1.70;;
12042;SDS011;6082;49.306;12.862;2022-07-04T05:50:23;1.70;;;1.60;;
12042;SDS011;6082;49.306;12.862;2022-07-04T05:52:49;3.17;;;1.77;;
12042;SDS011;6082;49.306;12.862;2022-07-04T05:55:15;2.33;;;2.10;;
12042;SDS011;6082;49.306;12.862;2022-07-04T05:57:40;2.13;;;1.83;;
12042;SDS011;6082;49.306;12.862;2022-07-04T06:00:06;2.30;;;1.80;;
12042;SDS011;6082;49.306;12.862;2022-07-04T06:02:32;1.77;;;1.57;;
12042;SDS011;6082;49.306;12.862;2022-07-04T06:04:58;2.40;;;1.90;;
12042;SDS011;6082;49.306;12.862;2022-07-04T06:07:24;1.80;;;1.70;;
12042;SDS011;6082;49.306;12.862;2022-07-04T06:09:50;2.10;;;1.90;;
12042;SDS011;6082;49.306;12.862;2022-07-04T06:12:15;1.63;;;1.53;;
12042;SDS011;6082;49.306;12.862;2022-07-04T06:14:41;1.50;;;1.40;;
12042;SDS011;6082;49.306;12.862;2022-07-04T06:17:07;1.83;;;1.60;;
12042;SDS011;6082;49.306;12.862;2022-07-04T06:19:33;2.30;;;1.67;;
12042;SDS011;6082;49.306;12.862;2022-07-04T06:21:59;1.60;;;1.50;;
12042;SDS011;6082;49.306;12.862;2022-07-04T06:24:24;1.70;;;1.60;;
12042;SDS011;6082;49.306;12.862;2022-07-04T06:26:50;2.10;;;2.00;;
12042;SDS011;6082;49.306;12.862;2022-07-04T06:29:16;1.97;;;1.83;;
12042;SDS011;6082;49.306;12.862;2022-07-04T06:31:41;2.07;;;1.87;;
12042;SDS011;6082;49.306;12.862;2022-07-04T06:34:07;1.70;;;1.60;;
12042;SDS011;6082;49.306;12.862;2022-07-04T06:36:51;2.10;;;1.70;;
12042;SDS011;6082;49.306;12.862;2022-07-04T06:39:17;1.97;;;1.77;;
12042;SDS011;6082;49.306;12.862;2022-07-04T06:41:42;2.10;;;1.90;;
12042;SDS011;6082;49.306;12.862;2022-07-04T06:44:08;1.77;;;1.67;;
12042;SDS011;6082;49.306;12.862;2022-07-04T06:46:34;3.13;;;1.83;;
12042;SDS011;6082;49.306;12.862;2022-07-04T06:49:00;1.83;;;1.60;;
12042;SDS011;6082;49.306;12.862;2022-07-04T06:51:25;2.10;;;1.90;;
12042;SDS011;6082;49.306;12.862;2022-07-04T06:53:51;1.93;;;1.83;;
12042;SDS011;6082;49.306;12.862;2022-07-04T06:56:17;2.20;;;2.00;;
12042;SDS011;6082;49.306;12.862;2022-07-04T06:58:43;2.20;;;2.00;;
12042;SDS011;6082;49.306;12.862;2022-07-04T07:01:09;3.27;;;1.90;;
12042;SDS011;6082;49.306;12.862;2022-07-04T07:03:35;2.33;;;2.13;;
12042;SDS011;6082;49.306;12.862;2022-07-04T07:06:01;2.00;;;1.80;;
12042;SDS011;6082;49.306;12.862;2022-07-04T07:08:30;2.33;;;2.13;;
12042;SDS011;6082;49.306;12.862;2022-07-04T07:10:56;2.10;;;1.90;;
12042;SDS011;6082;49.306;12.862;2022-07-04T07:13:23;3.57;;;2.23;;
12042;SDS011;6082;49.306;12.862;2022-07-04T07:15:48;2.60;;;2.30;;
12042;SDS011;6082;49.306;12.862;2022-07-04T07:18:14;2.10;;;1.90;;
12042;SDS011;6082;49.306;12.862;2022-07-04T07:20:41;3.03;;;2.20;;
12042;SDS011;6082;49.306;12.862;2022-07-04T07:23:07;4.07;;;3.13;;
12042;SDS011;6082;49.306;12.862;2022-07-04T07:25:33;2.60;;;2.40;;
12042;SDS011;6082;49.306;12.862;2022-07-04T07:27:59;3.83;;;2.13;;
12042;SDS011;6082;49.306;12.862;2022-07-04T07:30:25;3.07;;;2.67;;
12042;SDS011;6082;49.306;12.862;2022-07-04T07:32:51;4.30;;;2.23;;
12042;SDS011;6082;49.306;12.862;2022-07-04T07:35:17;2.83;;;2.20;;
12042;SDS011;6082;49.306;12.862;2022-07-04T07:37:43;2.90;;;2.20;;
12042;SDS011;6082;49.306;12.862;2022-07-04T07:40:09;2.13;;;1.93;;
12042;SDS011;6082;49.306;12.862;2022-07-04T07:42:35;2.63;;;2.40;;
12042;SDS011;6082;49.306;12.862;2022-07-04T07:45:00;2.40;;;2.20;;
12042;SDS011;6082;49.306;12.862;2022-07-04T07:47:26;3.03;;;2.30;;
12042;SDS011;6082;49.306;12.862;2022-07-04T07:49:53;2.53;;;2.33;;
12042;SDS011;6082;49.306;12.862;2022-07-04T07:52:19;2.60;;;2.20;;
12042;SDS011;6082;49.306;12.862;2022-07-04T07:54:44;3.37;;;2.03;;
12042;SDS011;6082;49.306;12.862;2022-07-04T07:57:10;2.23;;;2.10;;
12042;SDS011;6082;49.306;12.862;2022-07-04T07:59:36;2.57;;;2.30;;
12042;SDS011;6082;49.306;12.862;2022-07-04T08:02:01;2.63;;;2.37;;
12042;SDS011;6082;49.306;12.862;2022-07-04T08:04:27;2.60;;;2.40;;
12042;SDS011;6082;49.306;12.862;2022-07-04T08:06:59;3.03;;;2.30;;
12042;SDS011;6082;49.306;12.862;2022-07-04T08:09:25;2.37;;;2.17;;
12042;SDS011;6082;49.306;12.862;2022-07-04T08:11:51;2.70;;;2.27;;
12042;SDS011;6082;49.306;12.862;2022-07-04T08:14:17;2.23;;;2.03;;
12042;SDS011;6082;49.306;12.862;2022-07-04T08:16:42;2.87;;;2.40;;
12042;SDS011;6082;49.306;12.862;2022-07-04T08:19:08;2.50;;;2.30;;
12042;SDS011;6082;49.306;12.862;2022-07-04T08:21:34;2.60;;;2.17;;
12042;SDS011;6082;49.306;12.862;2022-07-04T08:24:00;2.33;;;2.10;;
12042;SDS011;6082;49.306;12.862;2022-07-04T08:26:25;2.87;;;2.57;;
12042;SDS011;6082;49.306;12.862;2022-07-04T08:28:52;2.57;;;2.37;;
12042;SDS011;6082;49.306;12.862;2022-07-04T08:31:20;2.77;;;2.50;;
12042;SDS011;6082;49.306;12.862;2022-07-04T08:33:46;3.07;;;2.50;;
12042;SDS011;6082;49.306;12.862;2022-07-04T08:36:12;3.10;;;2.23;;
12042;SDS011;6082;49.306;12.862;2022-07-04T08:38:38;2.53;;;2.33;;
12042;SDS011;6082;49.306;12.862;2022-07-04T08:41:04;2.40;;;2.20;;
12042;SDS011;6082;49.306;12.862;2022-07-04T08:43:30;2.47;;;2.27;;
12042;SDS011;6082;49.306;12.862;2022-07-04T08:45:59;2.50;;;2.03;;
12042;SDS011;6082;49.306;12.862;2022-07-04T08:48:27;3.33;;;2.30;;
12042;SDS011;6082;49.306;12.862;2022-07-04T08:50:56;2.50;;;2.30;;
12042;SDS011;6082;49.306;12.862;2022-07-04T08:53:26;2.13;;;2.03;;
12042;SDS011;6082;49.306;12.862;2022-07-04T08:55:53;2.30;;;2.00;;
12042;SDS011;6082;49.306;12.862;2022-07-04T08:58:39;2.60;;;1.97;;
12042;SDS011;6082;49.306;12.862;2022-07-04T09:01:08;2.17;;;2.00;;
12042;SDS011;6082;49.306;12.862;2022-07-04T09:03:41;2.50;;;2.00;;
12042;SDS011;6082;49.306;12.862;2022-07-04T09:06:09;2.13;;;1.93;;
12042;SDS011;6082;49.306;12.862;2022-07-04T09:08:36;2.30;;;2.10;;
12042;SDS011;6082;49.306;12.862;2022-07-04T09:11:03;1.80;;;1.70;;
12042;SDS011;6082;49.306;12.862;2022-07-04T09:13:29;2.40;;;2.20;;
12042;SDS011;6082;49.306;12.862;2022-07-04T09:15:55;1.93;;;1.83;;
12042;SDS011;6082;49.306;12.862;2022-07-04T09:18:31;1.90;;;1.70;;
12042;SDS011;6082;49.306;12.862;2022-07-04T09:21:08;1.97;;;1.87;;
12042;SDS011;6082;49.306;12.862;2022-07-04T09:23:41;2.37;;;2.17;;
12042;SDS011;6082;49.306;12.862;2022-07-04T09:26:12;3.17;;;2.00;;
12042;SDS011;6082;49.306;12.862;2022-07-04T09:28:45;2.03;;;1.93;;
12042;SDS011;6082;49.306;12.862;2022-07-04T09:31:18;2.30;;;2.00;;
12042;SDS011;6082;49.306;12.862;2022-07-04T09:36:25;2.00;;;1.83;;
12042;SDS011;6082;49.306;12.862;2022-07-04T09:44:24;2.10;;;2.00;;
12042;SDS011;6082;49.306;12.862;2022-07-04T09:46:53;2.00;;;1.90;;
12042;SDS011;6082;49.306;12.862;2022-07-04T09:49:20;1.70;;;1.60;;
12042;SDS011;6082;49.306;12.862;2022-07-04T09:51:47;1.93;;;1.70;;
12042;SDS011;6082;49.306;12.862;2022-07-04T09:54:28;2.23;;;2.03;;
12042;SDS011;6082;49.306;12.862;2022-07-04T09:57:01;2.67;;;1.83;;
12042;SDS011;6082;49.306;12.862;2022-07-04T09:59:28;2.30;;;2.10;;
12042;SDS011;6082;49.306;12.862;2022-07-04T10:15:39;1.77;;;1.67;;
12042;SDS011;6082;49.306;12.862;2022-07-04T10:18:07;2.43;;;2.20;;
12042;SDS011;6082;49.306;12.862;2022-07-04T10:20:33;2.90;;;2.60;;
12042;SDS011;6082;49.306;12.862;2022-07-04T10:23:00;4.20;;;2.77;;
12042;SDS011;6082;49.306;12.862;2022-07-04T10:25:27;2.30;;;2.10;;
12042;SDS011;6082;49.306;12.862;2022-07-04T10:27:54;2.03;;;1.93;;
12042;SDS011;6082;49.306;12.862;2022-07-04T10:30:21;2.07;;;1.90;;
12042;SDS011;6082;49.306;12.862;2022-07-04T10:32:50;1.80;;;1.70;;
12042;SDS011;6082;49.306;12.862;2022-07-04T10:35:17;2.20;;;2.00;;
12042;SDS011;6082;49.306;12.862;2022-07-04T10:38:21;2.63;;;2.30;;
12042;SDS011;6082;49.306;12.862;2022-07-04T10:41:03;2.40;;;2.20;;
12042;SDS011;6082;49.306;12.862;2022-07-04T10:51:02;2.37;;;2.17;;
12042;SDS011;6082;49.306;12.862;2022-07-04T10:53:30;2.73;;;2.40;;
12042;SDS011;6082;49.306;12.862;2022-07-04T10:58:54;2.70;;;2.03;;
12042;SDS011;6082;49.306;12.862;2022-07-04T11:01:20;2.33;;;2.13;;
12042;SDS011;6082;49.306;12.862;2022-07-04T11:03:47;2.60;;;2.40;;
12042;SDS011;6082;49.306;12.862;2022-07-04T11:14:31;2.23;;;2.03;;
12042;SDS011;6082;49.306;12.862;2022-07-04T11:17:01;2.43;;;2.23;;
12042;SDS011;6082;49.306;12.862;2022-07-04T11:19:28;2.07;;;1.97;;
12042;SDS011;6082;49.306;12.862;2022-07-04T11:21:57;2.63;;;2.37;;
12042;SDS011;6082;49.306;12.862;2022-07-04T11:24:24;2.77;;;2.40;;
12042;SDS011;6082;49.306;12.862;2022-07-04T11:26:50;2.30;;;2.10;;
12042;SDS011;6082;49.306;12.862;2022-07-04T11:29:17;3.17;;;2.10;;
12042;SDS011;6082;49.306;12.862;2022-07-04T11:31:44;2.37;;;2.17;;
12042;SDS011;6082;49.306;12.862;2022-07-04T11:34:12;2.57;;;1.90;;
12042;SDS011;6082;49.306;12.862;2022-07-04T11:36:39;2.33;;;2.13;;
12042;SDS011;6082;49.306;12.862;2022-07-04T11:39:07;3.43;;;1.90;;
12042;SDS011;6082;49.306;12.862;2022-07-04T11:41:44;2.40;;;2.20;;
12042;SDS011;6082;49.306;12.862;2022-07-04T11:44:40;2.10;;;1.90;;
12042;SDS011;6082;49.306;12.862;2022-07-04T11:49:57;2.53;;;2.33;;
12042;SDS011;6082;49.306;12.862;2022-07-04T11:52:46;2.50;;;2.30;;
12042;SDS011;6082;49.306;12.862;2022-07-04T11:55:16;2.60;;;2.33;;
12042;SDS011;6082;49.306;12.862;2022-07-04T11:57:49;2.30;;;2.10;;
12042;SDS011;6082;49.306;12.862;2022-07-04T12:00:21;1.83;;;1.73;;
12042;SDS011;6082;49.306;12.862;2022-07-04T12:02:50;2.00;;;1.80;;
12042;SDS011;6082;49.306;12.862;2022-07-04T12:05:17;2.13;;;1.93;;
12042;SDS011;6082;49.306;12.862;2022-07-04T12:07:45;2.30;;;2.10;;
12042;SDS011;6082;49.306;12.862;2022-07-04T12:10:13;1.90;;;1.80;;
12042;SDS011;6082;49.306;12.862;2022-07-04T12:12:54;2.00;;;1.83;;
12042;SDS011;6082;49.306;12.862;2022-07-04T12:15:24;2.20;;;2.00;;
12042;SDS011;6082;49.306;12.862;2022-07-04T12:18:25;1.70;;;1.60;;
12042;SDS011;6082;49.306;12.862;2022-07-04T12:21:10;2.07;;;1.60;;
12042;SDS011;6082;49.306;12.862;2022-07-04T12:23:49;1.73;;;1.53;;
12042;SDS011;6082;49.306;12.862;2022-07-04T12:26:19;2.17;;;1.70;;
12042;SDS011;6082;49.306;12.862;2022-07-04T12:28:45;1.80;;;1.70;;
12042;SDS011;6082;49.306;12.862;2022-07-04T12:31:11;1.93;;;1.80;;
12042;SDS011;6082;49.306;12.862;2022-07-04T12:33:37;2.13;;;1.90;;
12042;SDS011;6082;49.306;12.862;2022-07-04T12:36:03;1.80;;;1.70;;
12042;SDS011;6082;49.306;12.862;2022-07-04T12:41:08;2.40;;;1.60;;
12042;SDS011;6082;49.306;12.862;2022-07-04T12:46:28;2.00;;;1.80;;
12042;SDS011;6082;49.306;12.862;2022-07-04T12:48:57;1.70;;;1.60;;
12042;SDS011;6082;49.306;12.862;2022-07-04T12:51:28;1.80;;;1.70;;
12042;SDS011;6082;49.306;12.862;2022-07-04T12:53:56;1.83;;;1.73;;
12042;SDS011;6082;49.306;12.862;2022-07-04T12:56:37;1.90;;;1.80;;
12042;SDS011;6082;49.306;12.862;2022-07-04T12:59:09;1.80;;;1.70;;
12042;SDS011;6082;49.306;12.862;2022-07-04T13:01:43;2.10;;;1.90;;
12042;SDS011;6082;49.306;12.862;2022-07-04T13:04:10;1.80;;;1.70;;
12042;SDS011;6082;49.306;12.862;2022-07-04T13:06:37;1.95;;;1.85;;
12042;SDS011;6082;49.306;12.862;2022-07-04T13:09:03;2.33;;;1.95;;
12042;SDS011;6082;49.306;12.862;2022-07-04T13:11:32;1.75;;;1.65;;
12042;SDS011;6082;49.306;12.862;2022-07-04T13:14:17;1.63;;;1.52;;
12042;SDS011;6082;49.306;12.862;2022-07-04T13:16:43;1.65;;;1.55;;
12042;SDS011;6082;49.306;12.862;2022-07-04T13:19:09;1.90;;;1.80;;
12042;SDS011;6082;49.306;12.862;2022-07-04T13:21:35;1.80;;;1.70;;
12042;SDS011;6082;49.306;12.862;2022-07-04T13:24:01;1.83;;;1.73;;
12042;SDS011;6082;49.306;12.862;2022-07-04T13:26:30;2.17;;;1.93;;
12042;SDS011;6082;49.306;12.862;2022-07-04T13:28:57;1.80;;;1.70;;
12042;SDS011;6082;49.306;12.862;2022-07-04T13:31:23;1.75;;;1.65;;
12042;SDS011;6082;49.306;12.862;2022-07-04T13:33:48;2.43;;;1.97;;
12042;SDS011;6082;49.306;12.862;2022-07-04T13:36:14;2.20;;;2.00;;
12042;SDS011;6082;49.306;12.862;2022-07-04T13:38:40;1.90;;;1.80;;
12042;SDS011;6082;49.306;12.862;2022-07-04T13:41:06;2.13;;;2.00;;
12042;SDS011;6082;49.306;12.862;2022-07-04T13:43:32;1.98;;;1.88;;
12042;SDS011;6082;49.306;12.862;2022-07-04T13:45:58;2.37;;;1.87;;
12042;SDS011;6082;49.306;12.862;2022-07-04T13:48:24;2.10;;;2.00;;
12042;SDS011;6082;49.306;12.862;2022-07-04T13:50:53;2.13;;;2.00;;
12042;SDS011;6082;49.306;12.862;2022-07-04T13:53:18;2.27;;;2.10;;
12042;SDS011;6082;49.306;12.862;2022-07-04T13:55:45;2.10;;;1.90;;
12042;SDS011;6082;49.306;12.862;2022-07-04T13:58:11;2.77;;;2.17;;
12042;SDS011;6082;49.306;12.862;2022-07-04T14:00:37;2.50;;;2.30;;
12042;SDS011;6082;49.306;12.862;2022-07-04T14:03:09;2.30;;;2.03;;
12042;SDS011;6082;49.306;12.862;2022-07-04T14:05:35;2.20;;;2.00;;
12042;SDS011;6082;49.306;12.862;2022-07-04T14:08:00;2.40;;;2.20;;
12042;SDS011;6082;49.306;12.862;2022-07-04T14:10:27;2.30;;;2.10;;
12042;SDS011;6082;49.306;12.862;2022-07-04T14:12:53;2.13;;;1.98;;
12042;SDS011;6082;49.306;12.862;2022-07-04T14:15:18;2.15;;;2.00;;
12042;SDS011;6082;49.306;12.862;2022-07-04T14:17:44;3.53;;;2.17;;
12042;SDS011;6082;49.306;12.862;2022-07-04T14:20:12;1.97;;;1.87;;
12042;SDS011;6082;49.306;12.862;2022-07-04T14:22:38;2.20;;;1.95;;
12042;SDS011;6082;49.306;12.862;2022-07-04T14:25:04;2.22;;;2.03;;
12042;SDS011;6082;49.306;12.862;2022-07-04T14:27:31;2.15;;;2.05;;
12042;SDS011;6082;49.306;12.862;2022-07-04T14:29:57;2.03;;;1.90;;
12042;SDS011;6082;49.306;12.862;2022-07-04T14:32:24;1.65;;;1.55;;
12042;SDS011;6082;49.306;12.862;2022-07-04T14:34:49;2.00;;;1.90;;
12042;SDS011;6082;49.306;12.862;2022-07-04T14:37:15;2.00;;;1.90;;
12042;SDS011;6082;49.306;12.862;2022-07-04T14:39:41;2.00;;;1.90;;
12042;SDS011;6082;49.306;12.862;2022-07-04T14:42:07;1.98;;;1.80;;
12042;SDS011;6082;49.306;12.862;2022-07-04T14:44:33;1.83;;;1.73;;
12042;SDS011;6082;49.306;12.862;2022-07-04T14:47:01;2.30;;;2.10;;
12042;SDS011;6082;49.306;12.862;2022-07-04T14:49:27;1.73;;;1.63;;
12042;SDS011;6082;49.306;12.862;2022-07-04T14:51:53;1.90;;;1.77;;
12042;SDS011;6082;49.306;12.862;2022-07-04T14:54:22;2.17;;;1.98;;
12042;SDS011;6082;49.306;12.862;2022-07-04T14:56:48;2.10;;;1.90;;
12042;SDS011;6082;49.306;12.862;2022-07-04T14:59:14;2.10;;;1.90;;
12042;SDS011;6082;49.306;12.862;2022-07-04T15:01:40;1.80;;;1.70;;
12042;SDS011;6082;49.306;12.862;2022-07-04T15:04:06;2.03;;;1.92;;
12042;SDS011;6082;49.306;12.862;2022-07-04T15:06:32;2.03;;;1.88;;
12042;SDS011;6082;49.306;12.862;2022-07-04T15:08:57;2.20;;;1.95;;
12042;SDS011;6082;49.306;12.862;2022-07-04T15:11:23;2.10;;;2.00;;
12042;SDS011;6082;49.306;12.862;2022-07-04T15:13:49;1.90;;;1.80;;
12042;SDS011;6082;49.306;12.862;2022-07-04T15:16:14;1.92;;;1.83;;
12042;SDS011;6082;49.306;12.862;2022-07-04T15:18:40;1.80;;;1.70;;
12042;SDS011;6082;49.306;12.862;2022-07-04T15:21:06;2.22;;;2.03;;
12042;SDS011;6082;49.306;12.862;2022-07-04T15:23:51;1.80;;;1.70;;
12042;SDS011;6082;49.306;12.862;2022-07-04T15:26:35;4.50;;;1.88;;
12042;SDS011;6082;49.306;12.862;2022-07-04T15:29:00;1.73;;;1.60;;
12042;SDS011;6082;49.306;12.862;2022-07-04T15:31:26;2.00;;;1.80;;
12042;SDS011;6082;49.306;12.862;2022-07-04T15:33:52;1.85;;;1.73;;
12042;SDS011;6082;49.306;12.862;2022-07-04T15:36:18;2.10;;;1.90;;
12042;SDS011;6082;49.306;12.862;2022-07-04T15:38:44;1.80;;;1.70;;